sensor_id;sensor_type;location;lat;lon;timestamp;P1;durP1;ratioP1;P2;durP2;ratioP2
58071;SDS011;60383;46.626;18.866;2023-06-22T00:02:16;8.07;;;6.38;;
58071;SDS011;60383;46.626;18.866;2023-06-22T00:04:42;8.73;;;6.82;;
58071;SDS011;60383;46.626;18.866;2023-06-22T00:07:08;8.95;;;7.40;;
58071;SDS011;60383;46.626;18.866;2023-06-22T00:09:33;8.55;;;6.25;;
58071;SDS011;60383;46.626;18.866;2023-06-22T00:11:59;9.48;;;6.72;;
58071;SDS011;60383;46.626;18.866;2023-06-22T00:14:25;8.88;;;6.57;;
58071;SDS011;60383;46.626;18.866;2023-06-22T00:16:50;8.18;;;6.40;;
58071;SDS011;60383;46.626;18.866;2023-06-22T00:19:20;8.88;;;6.47;;
58071;SDS011;60383;46.626;18.866;2023-06-22T00:21:46;7.65;;;5.90;;
58071;SDS011;60383;46.626;18.866;2023-06-22T00:24:12;9.23;;;6.60;;
58071;SDS011;60383;46.626;18.866;2023-06-22T00:26:38;8.13;;;6.53;;
58071;SDS011;60383;46.626;18.866;2023-06-22T00:29:04;8.80;;;7.10;;
58071;SDS011;60383;46.626;18.866;2023-06-22T00:31:29;7.57;;;6.28;;
58071;SDS011;60383;46.626;18.866;2023-06-22T00:33:55;11.68;;;6.38;;
58071;SDS011;60383;46.626;18.866;2023-06-22T00:36:20;9.32;;;6.78;;
58071;SDS011;60383;46.626;18.866;2023-06-22T00:38:46;9.85;;;7.15;;
58071;SDS011;60383;46.626;18.866;2023-06-22T00:41:12;7.95;;;6.45;;
58071;SDS011;60383;46.626;18.866;2023-06-22T00:43:37;9.43;;;6.15;;
58071;SDS011;60383;46.626;18.866;2023-06-22T00:46:03;11.80;;;7.28;;
58071;SDS011;60383;46.626;18.866;2023-06-22T00:48:28;10.57;;;6.68;;
58071;SDS011;60383;46.626;18.866;2023-06-22T00:50:54;8.95;;;6.97;;
58071;SDS011;60383;46.626;18.866;2023-06-22T00:53:21;7.85;;;6.45;;
58071;SDS011;60383;46.626;18.866;2023-06-22T00:55:46;10.30;;;7.30;;
58071;SDS011;60383;46.626;18.866;2023-06-22T00:58:16;9.55;;;7.18;;
58071;SDS011;60383;46.626;18.866;2023-06-22T01:00:47;9.70;;;6.45;;
58071;SDS011;60383;46.626;18.866;2023-06-22T01:03:13;7.95;;;7.15;;
58071;SDS011;60383;46.626;18.866;2023-06-22T01:05:39;9.45;;;6.53;;
58071;SDS011;60383;46.626;18.866;2023-06-22T01:11:10;7.65;;;5.88;;
58071;SDS011;60383;46.626;18.866;2023-06-22T01:13:57;7.20;;;5.63;;
58071;SDS011;60383;46.626;18.866;2023-06-22T01:16:30;7.07;;;5.78;;
58071;SDS011;60383;46.626;18.866;2023-06-22T01:19:20;6.95;;;5.43;;
58071;SDS011;60383;46.626;18.866;2023-06-22T01:22:04;7.22;;;5.88;;
58071;SDS011;60383;46.626;18.866;2023-06-22T01:29:55;7.85;;;6.15;;
58071;SDS011;60383;46.626;18.866;2023-06-22T01:32:27;8.55;;;6.00;;
58071;SDS011;60383;46.626;18.866;2023-06-22T01:34:55;7.05;;;5.57;;
58071;SDS011;60383;46.626;18.866;2023-06-22T01:37:23;7.93;;;6.30;;
58071;SDS011;60383;46.626;18.866;2023-06-22T01:39:49;7.93;;;5.45;;
58071;SDS011;60383;46.626;18.866;2023-06-22T01:42:15;6.85;;;5.75;;
58071;SDS011;60383;46.626;18.866;2023-06-22T01:44:42;7.10;;;5.18;;
58071;SDS011;60383;46.626;18.866;2023-06-22T01:47:08;8.48;;;5.70;;
58071;SDS011;60383;46.626;18.866;2023-06-22T01:49:34;7.15;;;5.10;;
58071;SDS011;60383;46.626;18.866;2023-06-22T01:52:00;6.95;;;5.78;;
58071;SDS011;60383;46.626;18.866;2023-06-22T01:54:25;9.75;;;6.60;;
58071;SDS011;60383;46.626;18.866;2023-06-22T01:56:51;8.93;;;6.47;;
58071;SDS011;60383;46.626;18.866;2023-06-22T02:01:50;7.18;;;5.88;;
58071;SDS011;60383;46.626;18.866;2023-06-22T02:07:37;7.80;;;6.03;;
58071;SDS011;60383;46.626;18.866;2023-06-22T02:10:07;6.75;;;5.68;;
58071;SDS011;60383;46.626;18.866;2023-06-22T02:12:34;7.38;;;5.55;;
58071;SDS011;60383;46.626;18.866;2023-06-22T02:15:01;8.23;;;6.18;;
58071;SDS011;60383;46.626;18.866;2023-06-22T02:17:27;10.35;;;6.28;;
58071;SDS011;60383;46.626;18.866;2023-06-22T02:19:53;8.57;;;6.25;;
58071;SDS011;60383;46.626;18.866;2023-06-22T02:22:19;6.95;;;5.85;;
58071;SDS011;60383;46.626;18.866;2023-06-22T02:24:44;8.63;;;5.72;;
58071;SDS011;60383;46.626;18.866;2023-06-22T02:27:10;7.00;;;5.60;;
58071;SDS011;60383;46.626;18.866;2023-06-22T02:29:36;7.30;;;5.88;;
58071;SDS011;60383;46.626;18.866;2023-06-22T02:32:02;7.78;;;5.65;;
58071;SDS011;60383;46.626;18.866;2023-06-22T02:34:27;7.20;;;5.90;;
58071;SDS011;60383;46.626;18.866;2023-06-22T02:36:53;8.05;;;6.03;;
58071;SDS011;60383;46.626;18.866;2023-06-22T02:39:19;8.10;;;5.53;;
58071;SDS011;60383;46.626;18.866;2023-06-22T02:41:47;8.18;;;5.72;;
58071;SDS011;60383;46.626;18.866;2023-06-22T02:44:16;7.57;;;5.55;;
58071;SDS011;60383;46.626;18.866;2023-06-22T02:46:42;7.57;;;5.85;;
58071;SDS011;60383;46.626;18.866;2023-06-22T02:49:07;7.82;;;5.70;;
58071;SDS011;60383;46.626;18.866;2023-06-22T02:51:33;6.78;;;5.20;;
58071;SDS011;60383;46.626;18.866;2023-06-22T02:53:59;6.95;;;5.40;;
58071;SDS011;60383;46.626;18.866;2023-06-22T02:56:25;6.95;;;5.32;;
58071;SDS011;60383;46.626;18.866;2023-06-22T02:58:51;6.57;;;5.70;;
58071;SDS011;60383;46.626;18.866;2023-06-22T03:01:17;5.88;;;5.05;;
58071;SDS011;60383;46.626;18.866;2023-06-22T03:03:48;6.90;;;4.88;;
58071;SDS011;60383;46.626;18.866;2023-06-22T03:06:13;6.18;;;4.72;;
58071;SDS011;60383;46.626;18.866;2023-06-22T03:08:40;8.23;;;4.90;;
58071;SDS011;60383;46.626;18.866;2023-06-22T03:11:06;8.23;;;5.50;;
58071;SDS011;60383;46.626;18.866;2023-06-22T03:13:32;6.38;;;4.80;;
58071;SDS011;60383;46.626;18.866;2023-06-22T03:15:58;6.20;;;4.90;;
58071;SDS011;60383;46.626;18.866;2023-06-22T03:18:24;6.78;;;4.55;;
58071;SDS011;60383;46.626;18.866;2023-06-22T03:20:50;7.03;;;5.10;;
58071;SDS011;60383;46.626;18.866;2023-06-22T03:23:15;5.90;;;4.68;;
58071;SDS011;60383;46.626;18.866;2023-06-22T03:25:41;8.15;;;5.53;;
58071;SDS011;60383;46.626;18.866;2023-06-22T03:28:09;5.35;;;4.50;;
58071;SDS011;60383;46.626;18.866;2023-06-22T03:30:35;8.77;;;5.07;;
58071;SDS011;60383;46.626;18.866;2023-06-22T03:33:00;7.03;;;5.00;;
58071;SDS011;60383;46.626;18.866;2023-06-22T03:35:26;7.22;;;4.55;;
58071;SDS011;60383;46.626;18.866;2023-06-22T03:37:51;8.50;;;5.18;;
58071;SDS011;60383;46.626;18.866;2023-06-22T03:40:17;7.07;;;5.07;;
58071;SDS011;60383;46.626;18.866;2023-06-22T03:42:42;8.45;;;5.47;;
58071;SDS011;60383;46.626;18.866;2023-06-22T03:45:08;7.45;;;5.07;;
58071;SDS011;60383;46.626;18.866;2023-06-22T03:47:34;6.80;;;5.03;;
58071;SDS011;60383;46.626;18.866;2023-06-22T03:50:00;6.85;;;5.00;;
58071;SDS011;60383;46.626;18.866;2023-06-22T03:52:25;9.45;;;5.78;;
58071;SDS011;60383;46.626;18.866;2023-06-22T03:54:51;6.53;;;4.95;;
58071;SDS011;60383;46.626;18.866;2023-06-22T03:57:16;6.22;;;5.00;;
58071;SDS011;60383;46.626;18.866;2023-06-22T03:59:42;6.93;;;4.57;;
58071;SDS011;60383;46.626;18.866;2023-06-22T04:02:07;7.95;;;5.45;;
58071;SDS011;60383;46.626;18.866;2023-06-22T04:04:32;7.70;;;4.65;;
58071;SDS011;60383;46.626;18.866;2023-06-22T04:07:00;6.57;;;5.25;;
58071;SDS011;60383;46.626;18.866;2023-06-22T04:09:25;7.15;;;5.07;;
58071;SDS011;60383;46.626;18.866;2023-06-22T04:11:51;7.07;;;4.90;;
58071;SDS011;60383;46.626;18.866;2023-06-22T04:14:17;6.25;;;4.70;;
58071;SDS011;60383;46.626;18.866;2023-06-22T04:16:42;7.45;;;4.70;;
58071;SDS011;60383;46.626;18.866;2023-06-22T04:19:08;8.60;;;4.82;;
58071;SDS011;60383;46.626;18.866;2023-06-22T04:21:39;9.25;;;5.10;;
58071;SDS011;60383;46.626;18.866;2023-06-22T04:24:04;6.82;;;4.90;;
58071;SDS011;60383;46.626;18.866;2023-06-22T04:26:30;7.78;;;5.10;;
58071;SDS011;60383;46.626;18.866;2023-06-22T04:28:55;6.75;;;4.93;;
58071;SDS011;60383;46.626;18.866;2023-06-22T04:31:21;6.65;;;4.63;;
58071;SDS011;60383;46.626;18.866;2023-06-22T04:33:56;7.57;;;5.15;;
58071;SDS011;60383;46.626;18.866;2023-06-22T04:36:21;7.05;;;5.13;;
58071;SDS011;60383;46.626;18.866;2023-06-22T04:38:48;7.43;;;5.10;;
58071;SDS011;60383;46.626;18.866;2023-06-22T04:41:17;9.30;;;4.77;;
58071;SDS011;60383;46.626;18.866;2023-06-22T04:43:48;6.53;;;4.60;;
58071;SDS011;60383;46.626;18.866;2023-06-22T04:46:19;6.95;;;4.82;;
58071;SDS011;60383;46.626;18.866;2023-06-22T04:48:44;6.47;;;5.00;;
58071;SDS011;60383;46.626;18.866;2023-06-22T04:51:10;6.10;;;4.65;;
58071;SDS011;60383;46.626;18.866;2023-06-22T04:53:35;8.57;;;4.82;;
58071;SDS011;60383;46.626;18.866;2023-06-22T04:56:01;7.55;;;4.50;;
58071;SDS011;60383;46.626;18.866;2023-06-22T04:58:29;7.40;;;4.97;;
58071;SDS011;60383;46.626;18.866;2023-06-22T05:00:57;7.78;;;5.20;;
58071;SDS011;60383;46.626;18.866;2023-06-22T05:03:24;5.90;;;4.88;;
58071;SDS011;60383;46.626;18.866;2023-06-22T05:05:51;8.05;;;5.20;;
58071;SDS011;60383;46.626;18.866;2023-06-22T05:08:17;7.38;;;5.03;;
58071;SDS011;60383;46.626;18.866;2023-06-22T05:10:43;6.43;;;4.70;;
58071;SDS011;60383;46.626;18.866;2023-06-22T05:13:08;5.90;;;5.00;;
58071;SDS011;60383;46.626;18.866;2023-06-22T05:15:34;8.77;;;5.25;;
58071;SDS011;60383;46.626;18.866;2023-06-22T05:18:04;6.32;;;5.15;;
58071;SDS011;60383;46.626;18.866;2023-06-22T05:20:30;9.18;;;5.03;;
58071;SDS011;60383;46.626;18.866;2023-06-22T05:22:56;8.93;;;5.35;;
58071;SDS011;60383;46.626;18.866;2023-06-22T05:25:22;6.03;;;5.15;;
58071;SDS011;60383;46.626;18.866;2023-06-22T05:27:47;10.48;;;5.13;;
58071;SDS011;60383;46.626;18.866;2023-06-22T05:30:13;7.18;;;5.20;;
58071;SDS011;60383;46.626;18.866;2023-06-22T05:32:38;6.65;;;5.38;;
58071;SDS011;60383;46.626;18.866;2023-06-22T05:35:04;9.30;;;5.93;;
58071;SDS011;60383;46.626;18.866;2023-06-22T05:37:30;7.95;;;6.18;;
58071;SDS011;60383;46.626;18.866;2023-06-22T05:39:55;7.15;;;5.47;;
58071;SDS011;60383;46.626;18.866;2023-06-22T05:42:22;7.47;;;5.82;;
58071;SDS011;60383;46.626;18.866;2023-06-22T05:44:48;9.02;;;5.80;;
58071;SDS011;60383;46.626;18.866;2023-06-22T05:47:13;9.00;;;6.22;;
58071;SDS011;60383;46.626;18.866;2023-06-22T05:49:39;8.25;;;6.22;;
58071;SDS011;60383;46.626;18.866;2023-06-22T05:52:04;8.40;;;6.72;;
58071;SDS011;60383;46.626;18.866;2023-06-22T05:54:30;6.60;;;5.68;;
58071;SDS011;60383;46.626;18.866;2023-06-22T05:56:56;7.75;;;6.55;;
58071;SDS011;60383;46.626;18.866;2023-06-22T05:59:22;6.57;;;5.30;;
58071;SDS011;60383;46.626;18.866;2023-06-22T06:01:47;10.77;;;6.50;;
58071;SDS011;60383;46.626;18.866;2023-06-22T06:04:18;6.57;;;5.68;;
58071;SDS011;60383;46.626;18.866;2023-06-22T06:06:44;7.22;;;5.82;;
58071;SDS011;60383;46.626;18.866;2023-06-22T06:09:12;8.25;;;5.95;;
58071;SDS011;60383;46.626;18.866;2023-06-22T06:11:38;6.85;;;5.32;;
58071;SDS011;60383;46.626;18.866;2023-06-22T06:14:04;8.38;;;6.32;;
58071;SDS011;60383;46.626;18.866;2023-06-22T06:16:29;8.50;;;6.10;;
58071;SDS011;60383;46.626;18.866;2023-06-22T06:18:55;7.00;;;5.97;;
58071;SDS011;60383;46.626;18.866;2023-06-22T06:21:21;8.50;;;6.03;;
58071;SDS011;60383;46.626;18.866;2023-06-22T06:23:46;8.68;;;6.25;;
58071;SDS011;60383;46.626;18.866;2023-06-22T06:26:12;8.63;;;6.53;;
58071;SDS011;60383;46.626;18.866;2023-06-22T06:28:38;8.32;;;6.25;;
58071;SDS011;60383;46.626;18.866;2023-06-22T06:31:03;6.78;;;5.95;;
58071;SDS011;60383;46.626;18.866;2023-06-22T06:33:32;10.45;;;7.28;;
58071;SDS011;60383;46.626;18.866;2023-06-22T06:35:57;8.27;;;6.35;;
58071;SDS011;60383;46.626;18.866;2023-06-22T06:38:23;8.23;;;6.90;;
58071;SDS011;60383;46.626;18.866;2023-06-22T06:40:49;9.43;;;6.70;;
58071;SDS011;60383;46.626;18.866;2023-06-22T06:43:14;9.05;;;6.90;;
58071;SDS011;60383;46.626;18.866;2023-06-22T06:45:39;7.80;;;6.93;;
58071;SDS011;60383;46.626;18.866;2023-06-22T06:48:05;8.73;;;6.85;;
58071;SDS011;60383;46.626;18.866;2023-06-22T06:50:30;8.20;;;7.15;;
58071;SDS011;60383;46.626;18.866;2023-06-22T06:52:56;7.10;;;6.00;;
58071;SDS011;60383;46.626;18.866;2023-06-22T06:55:24;8.07;;;6.60;;
58071;SDS011;60383;46.626;18.866;2023-06-22T06:57:50;7.03;;;5.50;;
58071;SDS011;60383;46.626;18.866;2023-06-22T07:00:17;7.82;;;5.38;;
58071;SDS011;60383;46.626;18.866;2023-06-22T07:02:44;7.55;;;5.93;;
58071;SDS011;60383;46.626;18.866;2023-06-22T07:05:10;7.90;;;5.43;;
58071;SDS011;60383;46.626;18.866;2023-06-22T07:07:37;7.18;;;5.30;;
58071;SDS011;60383;46.626;18.866;2023-06-22T07:10:03;6.57;;;5.38;;
58071;SDS011;60383;46.626;18.866;2023-06-22T07:12:30;8.30;;;5.85;;
58071;SDS011;60383;46.626;18.866;2023-06-22T07:15:01;6.45;;;5.30;;
58071;SDS011;60383;46.626;18.866;2023-06-22T07:17:28;8.05;;;4.85;;
58071;SDS011;60383;46.626;18.866;2023-06-22T07:19:54;6.38;;;5.50;;
58071;SDS011;60383;46.626;18.866;2023-06-22T07:22:19;6.20;;;5.15;;
58071;SDS011;60383;46.626;18.866;2023-06-22T07:24:45;6.40;;;5.57;;
58071;SDS011;60383;46.626;18.866;2023-06-22T07:27:10;6.70;;;4.82;;
58071;SDS011;60383;46.626;18.866;2023-06-22T07:29:37;10.13;;;5.90;;
58071;SDS011;60383;46.626;18.866;2023-06-22T07:32:05;8.48;;;5.13;;
58071;SDS011;60383;46.626;18.866;2023-06-22T07:34:31;7.43;;;5.68;;
58071;SDS011;60383;46.626;18.866;2023-06-22T07:36:56;5.88;;;4.90;;
58071;SDS011;60383;46.626;18.866;2023-06-22T07:39:22;6.10;;;5.50;;
58071;SDS011;60383;46.626;18.866;2023-06-22T07:41:50;6.93;;;5.22;;
58071;SDS011;60383;46.626;18.866;2023-06-22T07:44:16;6.85;;;5.97;;
58071;SDS011;60383;46.626;18.866;2023-06-22T07:46:42;6.45;;;5.30;;
58071;SDS011;60383;46.626;18.866;2023-06-22T07:49:07;6.82;;;5.80;;
58071;SDS011;60383;46.626;18.866;2023-06-22T07:51:33;6.22;;;5.57;;
58071;SDS011;60383;46.626;18.866;2023-06-22T07:53:59;5.35;;;4.85;;
58071;SDS011;60383;46.626;18.866;2023-06-22T07:56:24;6.13;;;5.20;;
58071;SDS011;60383;46.626;18.866;2023-06-22T07:58:50;6.53;;;5.57;;
58071;SDS011;60383;46.626;18.866;2023-06-22T08:01:15;7.20;;;5.70;;
58071;SDS011;60383;46.626;18.866;2023-06-22T08:03:42;7.03;;;5.63;;
58071;SDS011;60383;46.626;18.866;2023-06-22T08:06:08;6.22;;;5.00;;
58071;SDS011;60383;46.626;18.866;2023-06-22T08:08:37;7.00;;;4.90;;
58071;SDS011;60383;46.626;18.866;2023-06-22T08:11:03;5.75;;;5.18;;
58071;SDS011;60383;46.626;18.866;2023-06-22T08:13:29;7.57;;;6.65;;
58071;SDS011;60383;46.626;18.866;2023-06-22T08:15:55;6.85;;;5.80;;
58071;SDS011;60383;46.626;18.866;2023-06-22T08:18:20;6.95;;;5.82;;
58071;SDS011;60383;46.626;18.866;2023-06-22T08:20:46;6.70;;;5.78;;
58071;SDS011;60383;46.626;18.866;2023-06-22T08:23:11;6.28;;;5.45;;
58071;SDS011;60383;46.626;18.866;2023-06-22T08:25:37;7.40;;;6.07;;
58071;SDS011;60383;46.626;18.866;2023-06-22T08:28:03;6.65;;;5.40;;
58071;SDS011;60383;46.626;18.866;2023-06-22T08:30:29;6.78;;;5.32;;
58071;SDS011;60383;46.626;18.866;2023-06-22T08:32:55;7.10;;;5.47;;
58071;SDS011;60383;46.626;18.866;2023-06-22T08:35:21;8.38;;;6.10;;
58071;SDS011;60383;46.626;18.866;2023-06-22T08:37:47;6.53;;;5.55;;
58071;SDS011;60383;46.626;18.866;2023-06-22T08:40:17;6.22;;;5.63;;
58071;SDS011;60383;46.626;18.866;2023-06-22T08:42:44;6.40;;;5.70;;
58071;SDS011;60383;46.626;18.866;2023-06-22T08:45:11;8.13;;;5.95;;
58071;SDS011;60383;46.626;18.866;2023-06-22T08:47:37;8.07;;;6.28;;
58071;SDS011;60383;46.626;18.866;2023-06-22T08:50:03;7.65;;;6.22;;
58071;SDS011;60383;46.626;18.866;2023-06-22T08:52:28;7.43;;;5.72;;
58071;SDS011;60383;46.626;18.866;2023-06-22T08:54:54;7.97;;;5.90;;
58071;SDS011;60383;46.626;18.866;2023-06-22T08:57:20;6.75;;;5.50;;
58071;SDS011;60383;46.626;18.866;2023-06-22T08:59:46;6.78;;;6.05;;
58071;SDS011;60383;46.626;18.866;2023-06-22T09:02:12;7.40;;;5.90;;
58071;SDS011;60383;46.626;18.866;2023-06-22T09:04:37;6.82;;;6.13;;
58071;SDS011;60383;46.626;18.866;2023-06-22T09:07:03;7.35;;;6.05;;
58071;SDS011;60383;46.626;18.866;2023-06-22T09:09:29;6.80;;;5.80;;
58071;SDS011;60383;46.626;18.866;2023-06-22T09:11:54;7.35;;;6.22;;
58071;SDS011;60383;46.626;18.866;2023-06-22T09:14:20;6.40;;;5.72;;
58071;SDS011;60383;46.626;18.866;2023-06-22T09:16:45;8.30;;;7.00;;
58071;SDS011;60383;46.626;18.866;2023-06-22T09:19:11;7.25;;;6.47;;
58071;SDS011;60383;46.626;18.866;2023-06-22T09:21:37;6.93;;;5.97;;
58071;SDS011;60383;46.626;18.866;2023-06-22T09:24:03;7.25;;;6.35;;
58071;SDS011;60383;46.626;18.866;2023-06-22T09:26:29;8.05;;;6.80;;
58071;SDS011;60383;46.626;18.866;2023-06-22T09:28:54;7.07;;;6.38;;
58071;SDS011;60383;46.626;18.866;2023-06-22T09:31:19;6.57;;;5.95;;
58071;SDS011;60383;46.626;18.866;2023-06-22T09:33:53;8.18;;;6.50;;
58071;SDS011;60383;46.626;18.866;2023-06-22T09:36:19;6.75;;;6.15;;
58071;SDS011;60383;46.626;18.866;2023-06-22T09:38:48;7.35;;;6.35;;
58071;SDS011;60383;46.626;18.866;2023-06-22T09:41:20;7.57;;;6.28;;
58071;SDS011;60383;46.626;18.866;2023-06-22T09:43:45;7.70;;;6.63;;
58071;SDS011;60383;46.626;18.866;2023-06-22T09:46:11;7.78;;;6.53;;
58071;SDS011;60383;46.626;18.866;2023-06-22T09:48:36;7.60;;;6.60;;
58071;SDS011;60383;46.626;18.866;2023-06-22T09:51:02;8.57;;;7.68;;
58071;SDS011;60383;46.626;18.866;2023-06-22T09:53:27;7.68;;;6.32;;
58071;SDS011;60383;46.626;18.866;2023-06-22T09:55:53;7.55;;;6.75;;
58071;SDS011;60383;46.626;18.866;2023-06-22T09:58:19;6.60;;;5.90;;
58071;SDS011;60383;46.626;18.866;2023-06-22T10:00:44;7.32;;;6.57;;
58071;SDS011;60383;46.626;18.866;2023-06-22T10:03:10;7.50;;;6.78;;
58071;SDS011;60383;46.626;18.866;2023-06-22T10:05:35;7.35;;;6.50;;
58071;SDS011;60383;46.626;18.866;2023-06-22T10:08:01;7.88;;;6.88;;
58071;SDS011;60383;46.626;18.866;2023-06-22T10:10:26;8.65;;;6.75;;
58071;SDS011;60383;46.626;18.866;2023-06-22T10:12:55;7.40;;;6.10;;
58071;SDS011;60383;46.626;18.866;2023-06-22T10:15:22;7.55;;;6.75;;
58071;SDS011;60383;46.626;18.866;2023-06-22T10:17:48;7.65;;;6.50;;
58071;SDS011;60383;46.626;18.866;2023-06-22T10:20:13;7.28;;;6.55;;
58071;SDS011;60383;46.626;18.866;2023-06-22T10:22:40;8.23;;;6.88;;
58071;SDS011;60383;46.626;18.866;2023-06-22T10:25:06;9.35;;;6.68;;
58071;SDS011;60383;46.626;18.866;2023-06-22T10:27:33;9.23;;;6.80;;
58071;SDS011;60383;46.626;18.866;2023-06-22T10:29:58;7.15;;;6.45;;
58071;SDS011;60383;46.626;18.866;2023-06-22T10:32:24;9.68;;;6.50;;
58071;SDS011;60383;46.626;18.866;2023-06-22T10:34:49;7.53;;;6.68;;
58071;SDS011;60383;46.626;18.866;2023-06-22T10:37:15;7.10;;;6.40;;
58071;SDS011;60383;46.626;18.866;2023-06-22T10:39:40;7.95;;;6.28;;
58071;SDS011;60383;46.626;18.866;2023-06-22T10:42:07;9.15;;;6.38;;
58071;SDS011;60383;46.626;18.866;2023-06-22T10:44:32;9.45;;;6.50;;
58071;SDS011;60383;46.626;18.866;2023-06-22T10:46:58;7.10;;;6.00;;
58071;SDS011;60383;46.626;18.866;2023-06-22T10:49:23;7.93;;;6.20;;
58071;SDS011;60383;46.626;18.866;2023-06-22T10:51:49;7.72;;;6.65;;
58071;SDS011;60383;46.626;18.866;2023-06-22T10:54:14;7.63;;;6.82;;
58071;SDS011;60383;46.626;18.866;2023-06-22T10:56:43;7.03;;;6.30;;
58071;SDS011;60383;46.626;18.866;2023-06-22T10:59:09;6.80;;;6.10;;
58071;SDS011;60383;46.626;18.866;2023-06-22T11:01:34;7.82;;;6.75;;
58071;SDS011;60383;46.626;18.866;2023-06-22T11:04:00;6.85;;;6.15;;
58071;SDS011;60383;46.626;18.866;2023-06-22T11:06:26;6.97;;;6.07;;
58071;SDS011;60383;46.626;18.866;2023-06-22T11:08:51;6.22;;;5.63;;
58071;SDS011;60383;46.626;18.866;2023-06-22T11:11:16;7.63;;;6.13;;
58071;SDS011;60383;46.626;18.866;2023-06-22T11:13:43;6.95;;;6.35;;
58071;SDS011;60383;46.626;18.866;2023-06-22T11:16:09;7.38;;;6.35;;
58071;SDS011;60383;46.626;18.866;2023-06-22T11:18:35;7.45;;;5.88;;
58071;SDS011;60383;46.626;18.866;2023-06-22T11:21:01;7.22;;;5.88;;
58071;SDS011;60383;46.626;18.866;2023-06-22T11:23:26;6.75;;;6.05;;
58071;SDS011;60383;46.626;18.866;2023-06-22T11:25:53;6.40;;;5.70;;
58071;SDS011;60383;46.626;18.866;2023-06-22T11:28:19;10.00;;;5.90;;
58071;SDS011;60383;46.626;18.866;2023-06-22T11:30:45;7.22;;;5.60;;
58071;SDS011;60383;46.626;18.866;2023-06-22T11:33:11;7.53;;;6.05;;
58071;SDS011;60383;46.626;18.866;2023-06-22T11:35:36;7.22;;;6.50;;
58071;SDS011;60383;46.626;18.866;2023-06-22T11:38:02;6.93;;;6.05;;
58071;SDS011;60383;46.626;18.866;2023-06-22T11:40:29;6.22;;;5.63;;
58071;SDS011;60383;46.626;18.866;2023-06-22T11:42:55;6.63;;;5.70;;
58071;SDS011;60383;46.626;18.866;2023-06-22T11:45:20;6.90;;;6.10;;
58071;SDS011;60383;46.626;18.866;2023-06-22T11:47:46;7.28;;;6.15;;
58071;SDS011;60383;46.626;18.866;2023-06-22T11:50:11;6.43;;;5.82;;
58071;SDS011;60383;46.626;18.866;2023-06-22T11:52:37;7.82;;;6.35;;
58071;SDS011;60383;46.626;18.866;2023-06-22T11:55:03;6.78;;;5.93;;
58071;SDS011;60383;46.626;18.866;2023-06-22T11:57:32;7.75;;;6.47;;
58071;SDS011;60383;46.626;18.866;2023-06-22T11:59:59;7.40;;;6.68;;
58071;SDS011;60383;46.626;18.866;2023-06-22T12:02:24;6.07;;;5.47;;
58071;SDS011;60383;46.626;18.866;2023-06-22T12:04:49;6.78;;;6.07;;
58071;SDS011;60383;46.626;18.866;2023-06-22T12:07:17;7.32;;;6.60;;
58071;SDS011;60383;46.626;18.866;2023-06-22T12:09:43;6.68;;;5.95;;
58071;SDS011;60383;46.626;18.866;2023-06-22T12:12:09;5.90;;;5.20;;
58071;SDS011;60383;46.626;18.866;2023-06-22T12:14:35;7.03;;;5.63;;
58071;SDS011;60383;46.626;18.866;2023-06-22T12:17:00;6.55;;;5.82;;
58071;SDS011;60383;46.626;18.866;2023-06-22T12:19:26;6.22;;;5.60;;
58071;SDS011;60383;46.626;18.866;2023-06-22T12:21:51;6.93;;;6.03;;
58071;SDS011;60383;46.626;18.866;2023-06-22T12:24:17;7.30;;;6.05;;
58071;SDS011;60383;46.626;18.866;2023-06-22T12:26:42;7.53;;;5.78;;
58071;SDS011;60383;46.626;18.866;2023-06-22T12:29:08;6.57;;;5.88;;
58071;SDS011;60383;46.626;18.866;2023-06-22T12:31:35;7.05;;;5.63;;
58071;SDS011;60383;46.626;18.866;2023-06-22T12:34:01;6.43;;;5.72;;
58071;SDS011;60383;46.626;18.866;2023-06-22T12:36:27;8.00;;;5.40;;
58071;SDS011;60383;46.626;18.866;2023-06-22T12:38:53;6.95;;;5.60;;
58071;SDS011;60383;46.626;18.866;2023-06-22T12:41:19;6.40;;;5.53;;
58071;SDS011;60383;46.626;18.866;2023-06-22T12:43:44;6.95;;;5.43;;
58071;SDS011;60383;46.626;18.866;2023-06-22T12:46:11;6.90;;;6.00;;
58071;SDS011;60383;46.626;18.866;2023-06-22T12:48:37;6.07;;;5.47;;
58071;SDS011;60383;46.626;18.866;2023-06-22T12:51:07;6.22;;;5.63;;
58071;SDS011;60383;46.626;18.866;2023-06-22T12:53:33;6.55;;;5.85;;
58071;SDS011;60383;46.626;18.866;2023-06-22T12:55:59;5.95;;;5.28;;
58071;SDS011;60383;46.626;18.866;2023-06-22T12:58:24;7.65;;;5.78;;
58071;SDS011;60383;46.626;18.866;2023-06-22T13:00:50;7.00;;;5.60;;
58071;SDS011;60383;46.626;18.866;2023-06-22T13:03:15;6.03;;;5.32;;
58071;SDS011;60383;46.626;18.866;2023-06-22T13:05:41;6.28;;;5.43;;
58071;SDS011;60383;46.626;18.866;2023-06-22T13:08:06;9.77;;;5.30;;
58071;SDS011;60383;46.626;18.866;2023-06-22T13:10:33;5.97;;;5.35;;
58071;SDS011;60383;46.626;18.866;2023-06-22T13:12:58;5.55;;;4.95;;
58071;SDS011;60383;46.626;18.866;2023-06-22T13:15:26;6.45;;;5.28;;
58071;SDS011;60383;46.626;18.866;2023-06-22T13:17:53;5.68;;;4.95;;
58071;SDS011;60383;46.626;18.866;2023-06-22T13:20:19;7.90;;;5.53;;
58071;SDS011;60383;46.626;18.866;2023-06-22T13:22:44;8.60;;;6.68;;
58071;SDS011;60383;46.626;18.866;2023-06-22T13:25:10;6.45;;;5.00;;
58071;SDS011;60383;46.626;18.866;2023-06-22T13:27:40;5.97;;;5.10;;
58071;SDS011;60383;46.626;18.866;2023-06-22T13:30:06;7.95;;;5.40;;
58071;SDS011;60383;46.626;18.866;2023-06-22T13:32:32;5.68;;;4.80;;
58071;SDS011;60383;46.626;18.866;2023-06-22T13:34:57;7.20;;;5.35;;
58071;SDS011;60383;46.626;18.866;2023-06-22T13:37:23;5.93;;;4.70;;
58071;SDS011;60383;46.626;18.866;2023-06-22T13:39:48;6.50;;;5.20;;
58071;SDS011;60383;46.626;18.866;2023-06-22T13:42:14;6.03;;;5.32;;
58071;SDS011;60383;46.626;18.866;2023-06-22T13:44:39;7.20;;;5.25;;
58071;SDS011;60383;46.626;18.866;2023-06-22T13:47:05;6.35;;;4.80;;
58071;SDS011;60383;46.626;18.866;2023-06-22T13:49:31;5.88;;;5.25;;
58071;SDS011;60383;46.626;18.866;2023-06-22T13:51:57;7.45;;;5.30;;
58071;SDS011;60383;46.626;18.866;2023-06-22T13:54:22;7.85;;;5.35;;
58071;SDS011;60383;46.626;18.866;2023-06-22T13:56:48;6.63;;;4.72;;
58071;SDS011;60383;46.626;18.866;2023-06-22T13:59:13;8.05;;;5.70;;
58071;SDS011;60383;46.626;18.866;2023-06-22T14:01:39;6.18;;;4.80;;
58071;SDS011;60383;46.626;18.866;2023-06-22T14:04:05;5.75;;;4.50;;
58071;SDS011;60383;46.626;18.866;2023-06-22T14:06:30;6.45;;;5.03;;
58071;SDS011;60383;46.626;18.866;2023-06-22T14:08:56;5.70;;;5.10;;
58071;SDS011;60383;46.626;18.866;2023-06-22T14:11:21;8.25;;;5.65;;
58071;SDS011;60383;46.626;18.866;2023-06-22T14:13:47;6.07;;;5.20;;
58071;SDS011;60383;46.626;18.866;2023-06-22T14:16:12;5.88;;;4.90;;
58071;SDS011;60383;46.626;18.866;2023-06-22T14:18:38;5.88;;;5.13;;
58071;SDS011;60383;46.626;18.866;2023-06-22T14:21:04;6.32;;;5.25;;
58071;SDS011;60383;46.626;18.866;2023-06-22T14:23:29;8.25;;;6.22;;
58071;SDS011;60383;46.626;18.866;2023-06-22T14:25:55;6.78;;;5.75;;
58071;SDS011;60383;46.626;18.866;2023-06-22T14:28:20;6.50;;;5.78;;
58071;SDS011;60383;46.626;18.866;2023-06-22T14:30:46;6.88;;;5.55;;
58071;SDS011;60383;46.626;18.866;2023-06-22T14:33:11;7.15;;;5.80;;
58071;SDS011;60383;46.626;18.866;2023-06-22T14:35:37;6.68;;;5.43;;
58071;SDS011;60383;46.626;18.866;2023-06-22T14:38:03;6.55;;;5.53;;
58071;SDS011;60383;46.626;18.866;2023-06-22T14:40:28;5.80;;;5.20;;
58071;SDS011;60383;46.626;18.866;2023-06-22T14:42:53;5.72;;;5.13;;